Time;durP1;ratioP1;P1;durP2;ratioP2;P2;SDS_P1;SDS_P2;PMS_P1;PMS_P2;Temp;Humidity;BMP_temperature;BMP_pressure;BME280_temperature;BME280_humidity;BME280_pressure;Samples;Min_cycle;Max_cycle;Signal;HPM_P1;HPM_P2
2021/09/25 00:02:10;;;;;;;4.55;3.42;;;;;;;14.96;84.85;100521.41;5019733;28;1103009;-52
2021/09/25 00:04:37;;;;;;;6.28;3.33;;;;;;;14.95;85.75;100522.38;5049050;28;20055;-52
2021/09/25 00:07:03;;;;;;;5.00;3.40;;;;;;;14.94;85.59;100522.50;5059241;28;20041;-51
2021/09/25 00:09:30;;;;;;;5.63;3.20;;;;;;;14.92;85.94;100522.59;5061815;28;20561;-51
2021/09/25 00:11:56;;;;;;;4.72;3.22;;;;;;;14.90;85.32;100523.63;5059591;28;20052;-51
2021/09/25 00:14:23;;;;;;;6.38;3.15;;;;;;;14.86;85.68;100520.28;5059585;28;20421;-51
2021/09/25 00:16:49;;;;;;;4.03;2.97;;;;;;;14.87;86.23;100522.00;5059849;28;20048;-52
2021/09/25 00:19:16;;;;;;;5.97;2.95;;;;;;;14.87;85.34;100513.16;5055931;28;20154;-52
2021/09/25 00:21:43;;;;;;;4.70;3.10;;;;;;;14.83;84.79;100512.47;5058681;28;20041;-52
2021/09/25 00:24:09;;;;;;;2.70;2.40;;;;;;;14.82;85.16;100516.09;5059036;28;20052;-52
2021/09/25 00:26:35;;;;;;;4.65;2.85;;;;;;;14.78;84.54;100514.59;5057189;28;20138;-52
2021/09/25 00:29:02;;;;;;;3.83;2.85;;;;;;;14.75;84.75;100520.13;5060467;28;20413;-52
2021/09/25 00:31:29;;;;;;;6.75;2.83;;;;;;;14.71;85.58;100511.44;5057601;28;20052;-52
2021/09/25 00:33:55;;;;;;;3.22;2.72;;;;;;;14.71;86.43;100514.09;5059083;28;20102;-52
2021/09/25 00:36:22;;;;;;;3.65;2.88;;;;;;;14.70;85.93;100511.53;5059362;28;20048;-52
2021/09/25 00:38:48;;;;;;;3.35;2.65;;;;;;;14.66;86.32;100515.34;5058414;28;20044;-52
2021/09/25 00:41:15;;;;;;;4.20;2.67;;;;;;;14.65;86.83;100518.94;5058059;28;20051;-51
2021/09/25 00:43:41;;;;;;;4.85;2.85;;;;;;;14.60;86.07;100510.41;5060843;28;20052;-53
2021/09/25 00:46:12;;;;;;;3.05;2.55;;;;;;;14.56;86.20;100514.19;5061801;28;20036;-54
2021/09/25 00:48:40;;;;;;;3.53;2.90;;;;;;;14.53;86.24;100511.72;5063370;28;20538;-51
2021/09/25 00:51:06;;;;;;;5.05;2.70;;;;;;;14.54;87.03;100516.97;5053433;28;20049;-51
2021/09/25 00:53:33;;;;;;;4.55;2.60;;;;;;;14.58;87.68;100517.63;5058069;28;20573;-53
2021/09/25 00:56:00;;;;;;;3.90;2.78;;;;;;;14.54;87.02;100505.44;5058788;28;20087;-51
2021/09/25 00:58:28;;;;;;;4.63;2.58;;;;;;;14.57;87.74;100516.78;5037241;28;20048;-53
2021/09/25 01:00:54;;;;;;;4.25;2.85;;;;;;;14.61;88.07;100520.13;5056264;28;20048;-51
2021/09/25 01:03:21;;;;;;;3.40;2.88;;;;;;;14.59;87.38;100512.22;5055071;28;20048;-52
2021/09/25 01:05:48;;;;;;;2.88;2.28;;;;;;;14.58;87.04;100510.50;5052928;28;20048;-52
2021/09/25 01:08:14;;;;;;;4.10;2.75;;;;;;;14.56;86.19;100508.88;5063458;28;20041;-53
2021/09/25 01:10:41;;;;;;;2.70;2.33;;;;;;;14.56;87.02;100504.41;5062057;28;20044;-52
2021/09/25 01:13:09;;;;;;;4.80;2.90;;;;;;;14.55;86.66;100509.81;5059407;28;20036;-52
2021/09/25 01:15:35;;;;;;;5.55;3.88;;;;;;;14.54;87.14;100508.97;5062360;28;20044;-53
2021/09/25 01:18:02;;;;;;;5.25;3.47;;;;;;;14.52;87.10;100510.00;5058217;28;20047;-52
2021/09/25 01:20:28;;;;;;;4.60;3.30;;;;;;;14.51;87.19;100510.94;5056958;28;20493;-51
2021/09/25 01:22:55;;;;;;;8.15;3.70;;;;;;;14.51;87.63;100513.63;5056817;28;20036;-52
2021/09/25 01:25:21;;;;;;;4.68;3.03;;;;;;;14.47;87.17;100506.78;5060844;28;20046;-52
2021/09/25 01:27:48;;;;;;;4.07;2.92;;;;;;;14.45;87.40;100511.34;5056689;28;20048;-52
2021/09/25 01:30:16;;;;;;;4.18;2.88;;;;;;;14.43;87.84;100514.09;5063332;28;20063;-52
2021/09/25 01:32:44;;;;;;;4.85;3.15;;;;;;;14.44;88.61;100515.81;5056296;28;20064;-52
2021/09/25 01:35:12;;;;;;;3.80;2.78;;;;;;;14.45;87.85;100519.34;5054738;28;20049;-52
2021/09/25 01:37:40;;;;;;;4.10;2.88;;;;;;;14.45;88.33;100511.34;5057691;28;20040;-52
2021/09/25 01:40:07;;;;;;;4.90;3.00;;;;;;;14.40;87.74;100514.28;5056217;28;20045;-51
2021/09/25 01:42:34;;;;;;;4.03;2.80;;;;;;;14.36;88.23;100512.72;5054944;28;20044;-51
2021/09/25 01:45:00;;;;;;;3.90;3.03;;;;;;;14.31;87.93;100505.03;5060439;28;20064;-51
2021/09/25 01:47:27;;;;;;;3.42;2.70;;;;;;;14.35;88.95;100519.00;5055070;28;20599;-51
2021/09/25 01:49:59;;;;;;;4.90;3.25;;;;;;;14.30;88.47;100505.97;5058766;28;20052;-52
2021/09/25 01:52:27;;;;;;;3.90;3.30;;;;;;;14.31;88.52;100512.16;5059085;28;20607;-53
2021/09/25 01:54:53;;;;;;;3.75;3.10;;;;;;;14.27;87.74;100516.81;5060287;28;20040;-51
2021/09/25 01:57:20;;;;;;;3.97;3.00;;;;;;;14.25;88.50;100517.84;5060029;28;20040;-50
2021/09/25 01:59:47;;;;;;;4.53;3.10;;;;;;;14.19;88.68;100513.72;5061684;28;20051;-52
2021/09/25 02:02:14;;;;;;;3.53;3.10;;;;;;;14.18;89.08;100514.69;5056675;28;20060;-52
2021/09/25 02:04:47;;;;;;;7.00;3.47;;;;;;;14.16;89.40;100513.94;5055402;28;20136;-52
2021/09/25 02:07:18;;;;;;;3.63;2.95;;;;;;;14.13;88.59;100513.25;5058286;28;20040;-53
2021/09/25 02:09:46;;;;;;;4.22;3.00;;;;;;;14.11;89.64;100510.69;5055544;28;20044;-52
2021/09/25 02:12:12;;;;;;;5.05;3.72;;;;;;;14.12;89.88;100524.84;5053000;28;20051;-51
2021/09/25 02:14:39;;;;;;;5.22;2.90;;;;;;;14.08;89.13;100528.63;5057180;28;20048;-54
2021/09/25 02:17:06;;;;;;;4.20;2.97;;;;;;;14.09;89.83;100525.88;5062657;28;20044;-52
2021/09/25 02:19:32;;;;;;;4.45;3.10;;;;;;;14.01;88.98;100521.00;5057988;28;20043;-53
2021/09/25 02:21:59;;;;;;;4.90;3.22;;;;;;;14.01;88.73;100529.00;5057143;28;20066;-53
2021/09/25 02:24:25;;;;;;;5.25;3.65;;;;;;;13.98;89.43;100539.00;5058152;28;20045;-53
2021/09/25 02:26:52;;;;;;;6.05;3.63;;;;;;;13.95;89.37;100537.34;5059497;28;20037;-56
2021/09/25 02:29:18;;;;;;;4.75;3.70;;;;;;;13.92;89.45;100532.22;5056706;28;20585;-51
2021/09/25 02:31:45;;;;;;;9.05;3.80;;;;;;;13.90;89.74;100533.25;5052869;28;20044;-52
2021/09/25 02:34:11;;;;;;;4.15;3.60;;;;;;;13.84;90.73;100518.50;5062418;28;20044;-51
2021/09/25 02:36:38;;;;;;;5.30;4.20;;;;;;;13.84;90.70;100525.63;5053965;28;20491;-51
2021/09/25 02:39:04;;;;;;;4.88;4.00;;;;;;;13.80;90.87;100527.59;5054644;28;20049;-51
2021/09/25 02:41:31;;;;;;;4.72;3.95;;;;;;;13.79;91.56;100525.03;5056577;28;20049;-51
2021/09/25 02:43:57;;;;;;;4.75;3.92;;;;;;;13.74;90.64;100522.63;5061303;28;20099;-50
2021/09/25 02:46:24;;;;;;;9.98;4.30;;;;;;;13.68;90.83;100525.66;5055746;28;20049;-51
2021/09/25 02:48:50;;;;;;;4.93;4.38;;;;;;;13.63;91.11;100525.91;5059182;28;20056;-54
2021/09/25 02:51:17;;;;;;;5.13;4.00;;;;;;;13.59;91.62;100523.50;5058174;28;20060;-51
2021/09/25 02:53:43;;;;;;;6.15;4.18;;;;;;;13.48;92.06;100502.00;5055365;28;20048;-51
2021/09/25 02:56:11;;;;;;;5.88;4.00;;;;;;;13.53;91.61;100522.09;5057000;28;20045;-52
2021/09/25 02:58:38;;;;;;;8.00;4.20;;;;;;;13.51;91.75;100521.31;5062283;28;20162;-51
2021/09/25 03:01:05;;;;;;;6.68;4.43;;;;;;;13.44;92.36;100519.91;5061415;28;20045;-51
2021/09/25 03:03:31;;;;;;;5.70;4.15;;;;;;;13.42;92.75;100512.97;5061960;28;20520;-51
2021/09/25 03:05:59;;;;;;;7.38;4.68;;;;;;;13.36;93.25;100511.53;5062099;28;20498;-52
2021/09/25 03:08:25;;;;;;;7.75;4.22;;;;;;;13.36;93.49;100511.53;5063193;28;20055;-52
2021/09/25 03:10:52;;;;;;;5.13;4.25;;;;;;;13.36;93.63;100513.34;5061885;28;20044;-52
2021/09/25 03:13:18;;;;;;;6.18;4.78;;;;;;;13.39;93.45;100515.78;5065080;28;20064;-51
2021/09/25 03:15:45;;;;;;;8.35;4.30;;;;;;;13.43;94.14;100518.22;5061021;28;20054;-53
2021/09/25 03:18:11;;;;;;;5.93;4.28;;;;;;;13.48;94.14;100520.63;5063896;28;20051;-52
2021/09/25 03:20:38;;;;;;;6.13;4.38;;;;;;;13.50;94.33;100510.75;5060719;28;20063;-56
2021/09/25 03:23:04;;;;;;;4.88;3.90;;;;;;;13.53;93.67;100527.41;5063206;28;20041;-51
2021/09/25 03:25:31;;;;;;;6.60;3.78;;;;;;;13.41;94.19;100497.94;5064418;28;20044;-52
2021/09/25 03:27:58;;;;;;;5.18;4.35;;;;;;;13.57;94.19;100520.94;5060311;28;20414;-50
2021/09/25 03:30:24;;;;;;;5.47;3.88;;;;;;;13.58;93.59;100520.00;5063884;28;20048;-52
2021/09/25 03:32:52;;;;;;;7.88;4.20;;;;;;;13.58;93.62;100514.66;5058761;28;20047;-50
2021/09/25 03:35:18;;;;;;;6.25;4.50;;;;;;;13.60;93.27;100517.25;5062152;28;20494;-51
2021/09/25 03:37:45;;;;;;;7.30;4.63;;;;;;;13.60;93.81;100520.75;5060758;28;20058;-50
2021/09/25 03:40:12;;;;;;;7.32;4.60;;;;;;;13.61;93.48;100518.97;5064929;28;20767;-51
2021/09/25 03:42:38;;;;;;;5.43;4.28;;;;;;;13.62;92.97;100526.00;5057486;28;20052;-52
2021/09/25 03:45:06;;;;;;;7.32;4.40;;;;;;;13.59;92.62;100524.38;5057881;28;20044;-51
2021/09/25 03:47:33;;;;;;;6.85;4.35;;;;;;;13.56;92.79;100534.31;5058515;28;20048;-52
2021/09/25 03:50:00;;;;;;;8.57;4.50;;;;;;;13.51;92.03;100529.28;5063467;28;20077;-53
2021/09/25 03:52:27;;;;;;;11.32;4.68;;;;;;;13.47;92.14;100543.69;5060072;28;20402;-52
2021/09/25 03:54:53;;;;;;;6.03;4.40;;;;;;;13.46;91.94;100539.31;5062461;28;20037;-52
2021/09/25 03:57:20;;;;;;;7.13;4.90;;;;;;;13.28;91.92;100522.59;5059622;28;20056;-51
2021/09/25 03:59:46;;;;;;;7.93;4.57;;;;;;;13.39;93.33;100545.91;5062113;28;20051;-51
2021/09/25 04:02:13;;;;;;;5.60;4.63;;;;;;;13.36;93.64;100547.91;5061482;28;20051;-52
2021/09/25 04:04:40;;;;;;;6.55;5.00;;;;;;;13.34;93.40;100542.69;5062402;28;20473;-52
2021/09/25 04:07:06;;;;;;;7.93;4.13;;;;;;;13.32;93.49;100544.56;5058082;28;20045;-52
2021/09/25 04:09:33;;;;;;;10.00;5.20;;;;;;;13.26;93.25;100551.06;5062644;28;20644;-52
2021/09/25 04:11:59;;;;;;;6.97;4.72;;;;;;;13.16;94.01;100527.75;5059949;28;20044;-52
2021/09/25 04:14:26;;;;;;;11.40;5.00;;;;;;;13.26;93.26;100540.44;5061407;28;20059;-53
2021/09/25 04:16:53;;;;;;;9.50;5.50;;;;;;;13.32;94.61;100536.59;5062055;28;20040;-53
2021/09/25 04:19:19;;;;;;;8.82;5.03;;;;;;;13.34;94.25;100532.03;5061154;28;20078;-54
2021/09/25 04:21:46;;;;;;;6.65;4.57;;;;;;;13.28;93.21;100519.94;5060474;28;20063;-51
2021/09/25 04:24:13;;;;;;;8.70;4.95;;;;;;;13.24;93.27;100530.81;5061854;28;20437;-53
2021/09/25 04:26:39;;;;;;;6.18;4.40;;;;;;;13.15;92.84;100520.72;5059314;28;20422;-53
2021/09/25 04:29:06;;;;;;;6.63;4.75;;;;;;;12.90;92.67;100508.75;5062622;28;20041;-52
2021/09/25 04:31:35;;;;;;;7.28;4.93;;;;;;;12.97;94.04;100530.50;5056843;28;20071;-54
2021/09/25 04:34:03;;;;;;;5.20;4.07;;;;;;;12.89;94.27;100525.63;5056937;28;20101;-50
2021/09/25 04:36:31;;;;;;;5.68;4.38;;;;;;;12.90;95.28;100529.16;5059286;28;20076;-51
2021/09/25 04:38:58;;;;;;;7.30;4.55;;;;;;;12.90;95.38;100529.16;5060786;28;20523;-52
2021/09/25 04:41:25;;;;;;;9.00;4.72;;;;;;;12.88;94.31;100529.22;5056448;28;20541;-53
2021/09/25 04:43:51;;;;;;;5.70;4.55;;;;;;;12.83;94.25;100520.63;5058166;28;20040;-53
2021/09/25 04:46:18;;;;;;;7.38;4.82;;;;;;;12.78;94.77;100517.34;5060517;28;20041;-51
2021/09/25 04:48:48;;;;;;;4.97;4.22;;;;;;;12.70;94.64;100519.59;5060994;28;20408;-51
2021/09/25 04:51:18;;;;;;;5.22;4.22;;;;;;;12.67;95.33;100514.44;5062554;28;20049;-51
2021/09/25 04:53:45;;;;;;;8.68;4.93;;;;;;;12.65;95.66;100513.66;5058577;28;20041;-52
2021/09/25 04:56:12;;;;;;;5.82;4.10;;;;;;;12.61;95.82;100510.28;5060395;28;20094;-53
2021/09/25 04:58:38;;;;;;;6.10;4.25;;;;;;;12.56;95.43;100520.34;5062070;28;20045;-51
2021/09/25 05:01:05;;;;;;;5.05;3.90;;;;;;;12.56;95.50;100516.81;5059301;28;20040;-52
2021/09/25 05:03:35;;;;;;;6.35;4.22;;;;;;;12.48;95.46;100519.84;5060505;28;20053;-53
2021/09/25 05:06:02;;;;;;;6.13;4.40;;;;;;;12.44;95.76;100528.06;5059356;28;20044;-51
2021/09/25 05:08:28;;;;;;;7.03;5.13;;;;;;;12.39;95.85;100528.31;5061295;28;20075;-52
2021/09/25 05:10:57;;;;;;;5.95;4.35;;;;;;;12.39;96.32;100530.13;5059202;28;20044;-52
2021/09/25 05:13:24;;;;;;;8.68;4.72;;;;;;;12.40;97.15;100523.88;5058408;28;20053;-52
2021/09/25 05:15:51;;;;;;;4.72;4.10;;;;;;;12.39;96.92;100519.50;5062297;28;20044;-53
2021/09/25 05:18:17;;;;;;;7.78;4.93;;;;;;;12.39;96.92;100524.81;5060855;28;20052;-55
2021/09/25 05:20:45;;;;;;;6.82;4.28;;;;;;;12.36;96.98;100520.50;5055182;28;20086;-52
2021/09/25 05:23:11;;;;;;;5.75;4.47;;;;;;;12.39;96.21;100530.97;5056513;28;20073;-52
2021/09/25 05:25:38;;;;;;;6.00;3.90;;;;;;;12.36;96.06;100533.78;5059925;28;20055;-52
2021/09/25 05:28:05;;;;;;;5.35;4.25;;;;;;;12.34;95.62;100524.19;5057737;28;20377;-50
2021/09/25 05:30:32;;;;;;;5.50;4.40;;;;;;;12.24;95.76;100518.50;5061566;28;20425;-52
2021/09/25 05:32:59;;;;;;;5.50;4.25;;;;;;;12.32;96.41;100529.56;5057147;28;20075;-51
2021/09/25 05:35:25;;;;;;;8.10;4.25;;;;;;;12.21;96.43;100519.50;5059910;28;20506;-51
2021/09/25 05:37:54;;;;;;;7.82;4.90;;;;;;;12.29;96.17;100527.94;5059471;28;20099;-51
2021/09/25 05:40:22;;;;;;;5.55;4.57;;;;;;;12.26;95.89;100530.75;5056950;28;20076;-52
2021/09/25 05:42:49;;;;;;;6.78;4.75;;;;;;;12.27;96.73;100537.78;5058402;28;20047;-52
2021/09/25 05:45:16;;;;;;;6.68;4.32;;;;;;;12.30;96.88;100539.41;5063006;28;20047;-51
2021/09/25 05:47:44;;;;;;;8.57;4.55;;;;;;;12.29;98.57;100524.41;5056896;28;20052;-52
2021/09/25 05:50:12;;;;;;;8.48;4.97;;;;;;;12.33;98.22;100510.03;5056729;28;20055;-52
2021/09/25 05:52:40;;;;;;;9.70;4.53;;;;;;;12.66;99.09;100541.94;5051899;28;20502;-51
2021/09/25 05:55:08;;;;;;;8.35;5.38;;;;;;;12.78;97.89;100540.41;5060525;28;20383;-51
2021/09/25 05:57:35;;;;;;;9.43;4.53;;;;;;;12.85;97.37;100532.03;5057207;28;21549;-52
2021/09/25 06:00:07;;;;;;;11.25;5.78;;;;;;;12.90;96.61;100543.28;5051494;28;20526;-51
2021/09/25 06:02:36;;;;;;;10.82;5.90;;;;;;;12.97;96.76;100547.31;5054598;28;20501;-50
2021/09/25 06:05:06;;;;;;;11.68;5.85;;;;;;;13.01;96.26;100545.38;5057683;28;20048;-51
2021/09/25 06:07:32;;;;;;;12.93;6.63;;;;;;;13.01;95.72;100524.09;5056911;28;20040;-52
2021/09/25 06:09:59;;;;;;;9.90;5.97;;;;;;;13.05;95.64;100528.31;5055544;28;20067;-56
2021/09/25 06:12:26;;;;;;;8.82;6.68;;;;;;;13.30;97.31;100541.13;5056035;28;20049;-50
2021/09/25 06:14:53;;;;;;;12.85;6.22;;;;;;;13.28;95.01;100543.88;5053826;28;20052;-51
2021/09/25 06:17:20;;;;;;;10.38;6.65;;;;;;;13.26;94.59;100540.44;5055796;28;20040;-51
2021/09/25 06:19:47;;;;;;;11.27;6.93;;;;;;;13.29;94.84;100542.06;5059205;28;20048;-51
2021/09/25 06:22:13;;;;;;;9.55;5.53;;;;;;;13.26;93.85;100552.88;5056740;28;20045;-52
2021/09/25 06:24:40;;;;;;;7.35;5.22;;;;;;;13.32;94.07;100541.91;5058210;28;20059;-54
2021/09/25 06:27:07;;;;;;;7.45;4.65;;;;;;;13.39;93.28;100550.38;5052216;28;20101;-51
2021/09/25 06:29:34;;;;;;;8.93;5.38;;;;;;;13.39;91.94;100553.03;5050323;28;20044;-53
2021/09/25 06:32:01;;;;;;;8.20;5.40;;;;;;;13.37;91.78;100560.28;5057208;28;20049;-52
2021/09/25 06:34:27;;;;;;;9.13;5.15;;;;;;;13.32;92.30;100534.78;5054770;28;20061;-53
2021/09/25 06:36:54;;;;;;;12.75;5.50;;;;;;;13.48;91.60;100555.19;5061787;28;20048;-51
2021/09/25 06:39:22;;;;;;;6.45;5.00;;;;;;;13.52;90.95;100562.06;5060373;28;20537;-52
2021/09/25 06:41:49;;;;;;;8.02;5.55;;;;;;;13.45;90.43;100558.03;5059459;28;20036;-51
2021/09/25 06:44:15;;;;;;;7.35;5.00;;;;;;;13.47;90.46;100564.97;5047219;28;20049;-52
2021/09/25 06:46:42;;;;;;;8.32;6.20;;;;;;;13.47;90.29;100572.09;5052201;28;20053;-52
2021/09/25 06:49:08;;;;;;;8.25;5.53;;;;;;;13.46;90.20;100567.72;5054973;28;20203;-51
2021/09/25 06:51:35;;;;;;;7.80;5.97;;;;;;;13.48;90.81;100564.03;5053493;28;20770;-51
2021/09/25 06:54:01;;;;;;;10.90;6.47;;;;;;;13.54;90.67;100566.34;5057545;28;20055;-51
2021/09/25 06:56:28;;;;;;;10.35;7.15;;;;;;;13.57;90.63;100559.97;5050625;28;20540;-52
2021/09/25 06:58:54;;;;;;;10.07;6.85;;;;;;;13.59;90.63;100558.09;5051444;28;20040;-51
2021/09/25 07:01:21;;;;;;;11.95;7.30;;;;;;;13.69;91.14;100554.81;5053444;28;20041;-52
2021/09/25 07:03:48;;;;;;;9.38;6.72;;;;;;;13.82;92.09;100562.13;5051303;28;20087;-51
2021/09/25 07:06:15;;;;;;;9.13;6.72;;;;;;;13.89;90.38;100559.00;5047193;28;20528;-54
2021/09/25 07:08:42;;;;;;;9.40;7.60;;;;;;;13.99;91.08;100549.56;5052451;28;21401;-52
2021/09/25 07:11:09;;;;;;;12.25;7.47;;;;;;;14.08;89.62;100549.94;5048102;28;20045;-50
2021/09/25 07:13:37;;;;;;;13.93;7.25;;;;;;;14.16;88.90;100555.69;5051272;28;20497;-51
2021/09/25 07:16:03;;;;;;;12.15;7.30;;;;;;;14.18;89.17;100548.44;5057156;28;20387;-51
2021/09/25 07:18:30;;;;;;;10.68;7.82;;;;;;;14.39;87.96;100564.00;5055565;28;20060;-51
2021/09/25 07:20:56;;;;;;;12.13;7.45;;;;;;;14.39;87.39;100549.81;5059817;28;20040;-52
2021/09/25 07:23:23;;;;;;;10.68;7.65;;;;;;;14.63;87.35;100574.19;5051760;28;20052;-52
2021/09/25 07:25:50;;;;;;;14.32;8.25;;;;;;;14.77;87.44;100574.19;5059980;28;20527;-52
2021/09/25 07:28:16;;;;;;;10.45;8.23;;;;;;;14.84;85.94;100572.84;5056605;28;20104;-52
2021/09/25 07:30:44;;;;;;;10.05;7.55;;;;;;;14.85;85.24;100579.03;5059695;28;20040;-50
2021/09/25 07:33:10;;;;;;;11.77;7.82;;;;;;;14.90;84.66;100577.81;5049257;28;20061;-52
2021/09/25 07:35:37;;;;;;;11.38;8.90;;;;;;;14.91;83.72;100576.00;5060695;28;20044;-53
2021/09/25 07:38:05;;;;;;;11.20;8.07;;;;;;;14.90;84.18;100583.16;5065057;28;20045;-52
2021/09/25 07:40:33;;;;;;;11.02;8.68;;;;;;;14.96;84.13;100576.56;5049486;28;20136;-53
2021/09/25 07:42:59;;;;;;;12.10;8.70;;;;;;;15.04;84.02;100580.47;5057462;28;20048;-51
2021/09/25 07:45:27;;;;;;;10.75;8.68;;;;;;;15.15;83.59;100589.59;5056623;28;20478;-53
2021/09/25 07:47:54;;;;;;;13.68;9.20;;;;;;;15.20;83.12;100595.53;5051224;28;20051;-50
2021/09/25 07:50:21;;;;;;;11.80;8.32;;;;;;;15.27;82.68;100594.16;5057757;28;21619;-51
2021/09/25 07:52:49;;;;;;;11.55;8.45;;;;;;;15.33;82.56;100596.44;5056404;28;20162;-52
2021/09/25 07:55:15;;;;;;;11.77;8.73;;;;;;;15.41;82.35;100607.50;5048658;28;20131;-51
2021/09/25 07:57:43;;;;;;;12.85;8.55;;;;;;;15.49;81.68;100602.53;5052653;28;20568;-52
2021/09/25 08:00:13;;;;;;;13.55;9.95;;;;;;;15.60;81.81;100610.72;5058411;28;20051;-52
2021/09/25 08:02:41;;;;;;;13.00;9.07;;;;;;;15.73;80.95;100611.69;5050767;28;20060;-51
2021/09/25 08:05:09;;;;;;;13.02;9.40;;;;;;;15.86;80.63;100610.88;5047320;28;20135;-51
2021/09/25 08:07:36;;;;;;;16.92;8.88;;;;;;;15.98;80.36;100607.38;5051103;28;20135;-53
2021/09/25 08:10:05;;;;;;;13.50;9.05;;;;;;;16.14;79.99;100608.94;5049238;28;20048;-51
2021/09/25 08:12:32;;;;;;;12.43;9.18;;;;;;;16.25;79.36;100602.03;5051311;28;20064;-51
2021/09/25 08:15:00;;;;;;;12.55;9.43;;;;;;;16.39;78.30;100602.78;5055402;28;20055;-52
2021/09/25 08:17:26;;;;;;;16.83;10.15;;;;;;;16.53;77.82;100604.53;5053048;28;20048;-53
2021/09/25 08:19:53;;;;;;;14.68;9.27;;;;;;;16.68;77.23;100605.34;5058043;28;20585;-52
2021/09/25 08:22:19;;;;;;;15.85;9.63;;;;;;;16.75;76.33;100612.84;5056042;28;20041;-51
2021/09/25 08:24:46;;;;;;;12.73;9.13;;;;;;;16.82;75.62;100616.81;5061313;28;20048;-53
2021/09/25 08:27:12;;;;;;;10.82;7.75;;;;;;;16.95;76.26;100603.44;5057802;28;20052;-52
2021/09/25 08:29:39;;;;;;;14.93;8.65;;;;;;;17.09;74.86;100610.47;5061625;28;20056;-52
2021/09/25 08:32:06;;;;;;;14.20;8.98;;;;;;;17.16;74.84;100612.59;5055236;28;20048;-51
2021/09/25 08:34:33;;;;;;;12.57;8.55;;;;;;;17.19;74.39;100612.38;5063609;28;20378;-51
2021/09/25 08:37:00;;;;;;;15.73;8.23;;;;;;;17.25;74.32;100610.25;5061263;28;20197;-52
2021/09/25 08:39:26;;;;;;;11.90;9.30;;;;;;;17.33;74.05;100608.72;5064026;28;20052;-52
2021/09/25 08:41:53;;;;;;;11.77;8.98;;;;;;;17.43;73.96;100614.28;5053555;28;20061;-52
2021/09/25 08:44:21;;;;;;;12.15;8.48;;;;;;;17.52;74.10;100597.56;5060466;28;20044;-51
2021/09/25 08:46:48;;;;;;;17.95;9.18;;;;;;;17.97;71.54;100611.25;5060892;28;20036;-51
2021/09/25 08:49:15;;;;;;;12.40;9.60;;;;;;;18.33;70.03;100605.81;5062815;28;20051;-52
2021/09/25 08:51:41;;;;;;;13.70;8.48;;;;;;;18.69;69.73;100617.41;5053352;28;20059;-56
2021/09/25 08:54:07;;;;;;;14.00;8.60;;;;;;;19.13;66.85;100613.94;5060119;28;20139;-51
2021/09/25 08:56:34;;;;;;;12.18;8.15;;;;;;;19.39;66.61;100609.16;5061714;28;20094;-52
2021/09/25 08:59:01;;;;;;;13.27;9.10;;;;;;;19.78;64.37;100603.31;5064607;28;20056;-52
2021/09/25 09:01:28;;;;;;;13.18;9.80;;;;;;;20.13;62.94;100603.06;5060119;28;20051;-53
2021/09/25 09:03:56;;;;;;;12.00;9.25;;;;;;;20.44;62.05;100608.59;5062320;28;20079;-51
2021/09/25 09:06:32;;;;;;;14.35;10.52;;;;;;;20.56;60.83;100607.56;5061265;28;20131;-53
2021/09/25 09:09:01;;;;;;;15.65;11.05;;;;;;;20.67;60.25;100611.03;5063175;28;20044;-51
2021/09/25 09:11:27;;;;;;;12.60;10.07;;;;;;;20.75;60.98;100614.91;5060972;28;20055;-53
2021/09/25 09:13:59;;;;;;;10.65;9.10;;;;;;;21.07;58.71;100604.03;5056391;28;20056;-51
2021/09/25 09:16:27;;;;;;;13.02;9.77;;;;;;;21.21;58.43;100601.88;5060453;28;20053;-54
2021/09/25 09:18:54;;;;;;;15.15;9.65;;;;;;;21.22;58.28;100598.19;5054572;28;20090;-52
2021/09/25 09:21:26;;;;;;;13.07;9.90;;;;;;;21.28;58.00;100596.78;5056883;28;20044;-51
2021/09/25 09:24:09;;;;;;;15.52;10.68;;;;;;;21.49;56.73;100588.63;5061345;28;20461;-51
2021/09/25 09:26:38;;;;;;;16.02;11.07;;;;;;;21.74;57.04;100604.31;5052422;28;20053;-53
2021/09/25 09:29:07;;;;;;;15.47;10.50;;;;;;;21.93;56.54;100604.34;5062348;28;20075;-52
2021/09/25 09:31:35;;;;;;;17.23;10.88;;;;;;;22.29;54.32;100604.69;5051911;28;20479;-54
2021/09/25 09:34:04;;;;;;;16.58;10.68;;;;;;;22.56;53.48;100604.81;5055575;28;20044;-53
2021/09/25 09:36:35;;;;;;;17.57;13.53;;;;;;;22.62;54.27;100595.28;5060279;28;20063;-52
2021/09/25 09:39:07;;;;;;;16.40;12.80;;;;;;;22.79;54.32;100599.13;5056640;28;20048;-51
2021/09/25 09:41:48;;;;;;;14.60;11.60;;;;;;;23.04;52.77;100595.78;5054066;28;20056;-53
2021/09/25 09:44:18;;;;;;;17.17;11.98;;;;;;;23.34;52.57;100594.66;5060832;28;20048;-52
2021/09/25 09:47:21;;;;;;;15.90;12.35;;;;;;;23.66;51.08;100591.56;5056957;28;20044;-52
2021/09/25 09:53:49;;;;;;;16.20;12.88;;;;;;;23.60;51.02;100589.47;5058048;28;21975;-52
2021/09/25 09:56:21;;;;;;;16.85;13.13;;;;;;;23.73;50.35;100598.06;5059346;28;20044;-53
2021/09/25 09:58:56;;;;;;;17.00;13.13;;;;;;;23.95;48.65;100583.25;5049483;28;20133;-55
2021/09/25 10:01:27;;;;;;;15.07;12.88;;;;;;;24.12;48.78;100577.00;5057400;28;20406;-52
2021/09/25 10:03:54;;;;;;;14.45;11.75;;;;;;;24.09;49.12;100572.75;5055611;28;20527;-53
2021/09/25 10:06:21;;;;;;;14.27;12.27;;;;;;;24.22;48.51;100571.53;5055592;28;20083;-51
2021/09/25 10:08:49;;;;;;;17.00;13.45;;;;;;;24.14;49.17;100575.00;5066289;28;20049;-53
2021/09/25 10:11:16;;;;;;;18.48;13.88;;;;;;;24.27;48.77;100580.03;5066199;28;20041;-54
2021/09/25 10:13:43;;;;;;;16.77;13.52;;;;;;;24.18;48.02;100568.28;5063734;28;20051;-52
2021/09/25 10:16:12;;;;;;;16.92;13.88;;;;;;;24.00;49.39;100576.38;5063462;28;20051;-54
2021/09/25 10:18:41;;;;;;;17.63;13.80;;;;;;;24.10;49.00;100573.59;5058387;28;20048;-53
2021/09/25 10:21:12;;;;;;;15.63;12.47;;;;;;;24.12;48.76;100577.84;5066196;28;20105;-55
2021/09/25 10:23:49;;;;;;;16.45;12.80;;;;;;;24.28;48.44;100563.66;5057558;28;20498;-54
2021/09/25 10:26:18;;;;;;;14.02;11.13;;;;;;;24.45;47.38;100557.34;5064644;28;20040;-53
2021/09/25 10:28:56;;;;;;;12.75;10.60;;;;;;;24.51;47.34;100566.72;5062439;28;20052;-53
2021/09/25 10:31:22;;;;;;;14.13;10.07;;;;;;;24.73;46.34;100555.34;5061240;28;20056;-54
2021/09/25 10:34:11;;;;;;;16.77;11.85;;;;;;;24.48;46.59;100559.75;5060990;28;20036;-52
2021/09/25 10:36:48;;;;;;;14.60;10.95;;;;;;;24.58;47.13;100559.66;5065130;28;20052;-52
2021/09/25 10:39:28;;;;;;;13.93;10.60;;;;;;;24.85;46.33;100547.00;5060486;28;20520;-52
2021/09/25 10:42:10;;;;;;;12.93;9.68;;;;;;;25.20;46.63;100554.97;5062469;28;20162;-53
2021/09/25 10:44:49;;;;;;;11.80;8.10;;;;;;;25.57;45.91;100543.78;5063305;28;20724;-53
2021/09/25 10:47:24;;;;;;;10.77;8.88;;;;;;;26.09;43.96;100549.84;5062474;28;20049;-55
2021/09/25 10:49:59;;;;;;;11.50;8.77;;;;;;;26.47;42.04;100547.50;5063538;28;20459;-53
2021/09/25 10:52:42;;;;;;;10.70;8.02;;;;;;;26.79;42.32;100547.44;5058900;28;20417;-52
2021/09/25 10:55:23;;;;;;;12.68;7.57;;;;;;;26.97;41.38;100533.69;5060911;28;20037;-54
2021/09/25 10:58:24;;;;;;;10.10;8.30;;;;;;;27.02;41.63;100542.16;5059481;28;20055;-53
2021/09/25 11:01:08;;;;;;;8.40;7.57;;;;;;;27.00;40.92;100537.94;5056642;28;20044;-51
2021/09/25 11:03:47;;;;;;;11.82;9.30;;;;;;;27.11;41.10;100532.09;5063608;28;20067;-56
2021/09/25 11:06:24;;;;;;;11.82;8.98;;;;;;;26.96;41.61;100534.69;5061413;28;20094;-54
2021/09/25 11:09:29;;;;;;;10.57;8.80;;;;;;;26.80;41.72;100535.56;5053894;28;20072;-53
2021/09/25 11:12:06;;;;;;;9.48;8.35;;;;;;;26.78;41.89;100529.44;4977339;28;20054;-54
2021/09/25 11:14:41;;;;;;;9.40;6.60;;;;;;;27.33;40.18;100525.91;5053411;28;20106;-54
2021/09/25 11:17:28;;;;;;;7.53;6.75;;;;;;;27.54;38.89;100525.28;5055329;28;20090;-53
2021/09/25 11:19:59;;;;;;;10.07;6.18;;;;;;;27.96;38.82;100516.72;5056918;28;20132;-53
2021/09/25 11:22:43;;;;;;;8.07;5.80;;;;;;;28.28;38.27;100516.47;5063331;28;20055;-52
2021/09/25 11:25:13;;;;;;;7.10;6.40;;;;;;;28.45;36.67;100519.06;5060336;28;20409;-52
2021/09/25 11:27:39;;;;;;;;;;;;;;;28.28;37.12;100516.47;5060006;28;20490;-52
2021/09/25 11:30:15;;;;;;;7.93;6.10;;;;;;;28.15;38.79;100512.66;5063875;28;19928;-54
2021/09/25 11:32:46;;;;;;;7.63;4.88;;;;;;;28.50;37.96;100509.28;5060381;28;20052;-53